Time;durP1;ratioP1;P1;durP2;ratioP2;P2;SDS_P1;SDS_P2;PMS_P1;PMS_P2;Temp;Humidity;BMP_temperature;BMP_pressure;BME280_temperature;BME280_humidity;BME280_pressure;Samples;Min_cycle;Max_cycle;Signal;HPM_P1;HPM_P2
2023/06/23 00:03:54;;;;;;;93.13;54.92;;;;;15.30;101452.00;;;;10419461;27;20204;-75
2023/06/23 00:08:55;;;;;;;81.30;50.28;;;;;15.20;101447.00;;;;10435892;27;21488;-75
2023/06/23 00:13:57;;;;;;;80.38;49.95;;;;;15.20;101450.00;;;;10435974;27;20597;-75
2023/06/23 00:18:58;;;;;;;94.55;53.55;;;;;15.20;101476.00;;;;10433629;27;20817;-76
2023/06/23 00:23:59;;;;;;;91.15;52.58;;;;;15.10;101469.00;;;;10436585;27;20212;-76
2023/06/23 00:29:01;;;;;;;90.18;53.00;;;;;15.00;101471.00;;;;10433862;27;20220;-76
2023/06/23 00:34:03;;;;;;;83.70;54.28;;;;;15.00;101477.00;;;;10419474;27;20249;-76
2023/06/23 00:39:04;;;;;;;93.60;52.22;;;;;14.90;101481.00;;;;10437600;27;21167;-75
2023/06/23 00:44:07;;;;;;;94.65;53.38;;;;;14.90;101480.00;;;;10416453;27;20537;-76
2023/06/23 00:49:18;;;;;;;93.30;53.42;;;;;14.80;101493.00;;;;10435728;27;20306;-76
2023/06/23 00:54:20;;;;;;;89.65;51.67;;;;;14.80;101499.00;;;;10415419;27;20258;-75
2023/06/23 00:59:21;;;;;;;87.72;53.15;;;;;14.80;101513.00;;;;10415246;27;20201;-77
2023/06/23 01:04:32;;;;;;;91.78;51.05;;;;;14.80;101515.00;;;;10402727;27;20207;-76
2023/06/23 01:09:42;;;;;;;86.68;48.80;;;;;14.70;101508.00;;;;10435046;27;21705;-75
2023/06/23 01:15:07;;;;;;;97.47;52.00;;;;;14.70;101526.00;;;;10434787;27;20225;-76
2023/06/23 01:20:21;;;;;;;95.73;54.27;;;;;14.60;101525.00;;;;10433515;27;20209;-77
2023/06/23 01:25:34;;;;;;;95.30;52.43;;;;;14.60;101531.00;;;;10417153;27;20818;-77
2023/06/23 01:30:39;;;;;;;87.63;50.87;;;;;14.50;101538.00;;;;10414954;27;20343;-77
2023/06/23 01:35:45;;;;;;;88.87;51.50;;;;;14.50;101541.00;;;;10437029;27;20204;-76
2023/06/23 01:40:52;;;;;;;88.47;49.97;;;;;14.50;101540.00;;;;10442765;27;20212;-77
2023/06/23 01:46:02;;;;;;;90.87;49.33;;;;;14.50;101559.00;;;;10439183;27;20315;-77
2023/06/23 01:51:05;;;;;;;78.77;47.97;;;;;14.50;101563.00;;;;10424462;27;20232;-77
2023/06/23 01:56:08;;;;;;;82.17;48.40;;;;;14.40;101572.00;;;;10423279;27;20627;-77
2023/06/23 02:01:11;;;;;;;95.43;49.47;;;;;14.30;101580.00;;;;10443117;27;20801;-76
2023/06/23 02:06:14;;;;;;;96.67;49.33;;;;;14.30;101590.00;;;;10425604;27;20269;-77
2023/06/23 02:11:16;;;;;;;84.17;49.00;;;;;14.30;101584.00;;;;10422703;27;20326;-77
2023/06/23 02:16:18;;;;;;;95.23;48.93;;;;;14.20;101594.00;;;;10424850;27;20213;-77
2023/06/23 02:21:25;;;;;;;89.97;50.47;;;;;14.20;101606.00;;;;10421950;27;20580;-77
2023/06/23 02:26:27;;;;;;;89.13;48.30;;;;;14.20;101608.00;;;;10439579;27;20219;-76
2023/06/23 02:31:28;;;;;;;90.63;48.80;;;;;14.20;101608.00;;;;10443589;27;20593;-76
2023/06/23 02:36:45;;;;;;;84.93;48.63;;;;;14.10;101608.00;;;;10440089;27;20447;-77
2023/06/23 02:41:51;;;;;;;95.23;50.83;;;;;14.10;101605.00;;;;10423963;28;20209;-77
2023/06/23 02:46:56;;;;;;;84.73;47.00;;;;;14.10;101595.00;;;;10404483;27;20205;-76
2023/06/23 02:52:00;;;;;;;91.37;47.37;;;;;14.10;101609.00;;;;10421414;27;21318;-77
2023/06/23 02:57:03;;;;;;;98.70;49.03;;;;;14.10;101618.00;;;;10419402;27;20790;-77
2023/06/23 03:02:07;;;;;;;97.43;47.43;;;;;14.10;101625.00;;;;10421902;27;21020;-77
2023/06/23 03:07:10;;;;;;;92.23;50.07;;;;;14.10;101626.00;;;;10443337;27;20558;-76
2023/06/23 03:12:12;;;;;;;96.27;48.03;;;;;14.00;101630.00;;;;10385149;27;20311;-77
2023/06/23 03:17:17;;;;;;;83.10;47.10;;;;;14.00;101641.00;;;;10406742;27;20557;-76
2023/06/23 03:22:26;;;;;;;87.10;47.20;;;;;13.90;101639.00;;;;10421441;27;20945;-77
2023/06/23 03:27:31;;;;;;;84.37;45.93;;;;;13.90;101632.00;;;;10420891;27;20740;-77
2023/06/23 03:32:37;;;;;;;97.70;51.17;;;;;13.90;101649.00;;;;10414361;27;20224;-77
2023/06/23 03:37:48;;;;;;;97.07;49.90;;;;;13.90;101641.00;;;;10420023;27;20651;-77
2023/06/23 03:42:56;;;;;;;92.07;49.70;;;;;13.80;101637.00;;;;10439228;27;20434;-77
2023/06/23 03:48:08;;;;;;;101.87;54.00;;;;;13.90;101644.00;;;;10404792;27;21343;-78
2023/06/23 03:53:10;;;;;;;125.97;55.17;;;;;14.00;101642.00;;;;10438890;27;20450;-77
2023/06/23 03:58:13;;;;;;;117.70;57.57;;;;;14.20;101644.00;;;;10435510;27;21263;-77
2023/06/23 04:03:17;;;;;;;117.03;59.40;;;;;14.40;101641.00;;;;10437740;27;21701;-77
2023/06/23 04:08:19;;;;;;;120.20;64.50;;;;;14.60;101639.00;;;;10437276;27;21572;-77
2023/06/23 04:13:22;;;;;;;108.50;57.17;;;;;14.70;101638.00;;;;10419825;28;20243;-77
2023/06/23 04:18:26;;;;;;;116.85;59.20;;;;;14.80;101641.00;;;;10418623;27;20303;-77
2023/06/23 04:23:29;;;;;;;102.25;55.40;;;;;14.90;101641.00;;;;10439422;27;20291;-77
2023/06/23 04:28:33;;;;;;;123.40;56.05;;;;;14.90;101651.00;;;;10435107;27;20216;-78
2023/06/23 04:33:35;;;;;;;117.72;58.22;;;;;15.00;101656.00;;;;10419603;27;20222;-77
2023/06/23 04:38:42;;;;;;;113.23;56.50;;;;;15.10;101648.00;;;;10437656;27;20210;-77
2023/06/23 04:43:46;;;;;;;116.85;57.10;;;;;15.20;101658.00;;;;10422825;27;21702;-77
2023/06/23 04:48:51;;;;;;;123.53;55.83;;;;;15.30;101671.00;;;;10437828;27;20302;-77
2023/06/23 04:53:57;;;;;;;116.57;55.95;;;;;15.40;101689.00;;;;10435638;27;20610;-77
2023/06/23 04:59:02;;;;;;;117.15;58.45;;;;;15.60;101706.00;;;;10439907;27;20215;-77
2023/06/23 05:04:06;;;;;;;169.73;69.30;;;;;15.90;101710.00;;;;10420368;27;20670;-78
2023/06/23 05:09:08;;;;;;;164.15;71.38;;;;;16.20;101715.00;;;;10422551;27;20247;-77
2023/06/23 05:14:12;;;;;;;150.50;68.30;;;;;16.50;101711.00;;;;10417532;27;20605;-78
2023/06/23 05:19:15;;;;;;;133.90;63.22;;;;;16.80;101719.00;;;;10444682;27;21085;-77
2023/06/23 05:24:19;;;;;;;116.55;58.92;;;;;17.00;101729.00;;;;10444763;27;20463;-78
2023/06/23 05:29:23;;;;;;;100.28;56.42;;;;;17.30;101718.00;;;;10425236;27;20240;-78
2023/06/23 05:34:26;;;;;;;105.55;54.42;;;;;17.50;101717.00;;;;10446075;27;21441;-77
2023/06/23 05:39:29;;;;;;;84.85;51.92;;;;;18.00;101722.00;;;;10425682;27;20628;-78
2023/06/23 05:44:31;;;;;;;66.53;45.67;;;;;18.40;101728.00;;;;10426474;27;20200;-78
2023/06/23 05:49:42;;;;;;;66.32;44.47;;;;;18.60;101726.00;;;;10445975;27;20278;-77
2023/06/23 05:54:49;;;;;;;54.13;39.30;;;;;18.90;101730.00;;;;10418790;27;20323;-77
2023/06/23 06:00:04;;;;;;;55.10;39.70;;;;;19.10;101744.00;;;;10424297;27;20208;-78
2023/06/23 06:05:17;;;;;;;46.80;35.05;;;;;19.40;101750.00;;;;10429845;27;20203;-77
2023/06/23 06:10:21;;;;;;;45.78;34.58;;;;;19.60;101755.00;;;;10434765;27;20351;-76
2023/06/23 06:15:23;;;;;;;41.65;31.88;;;;;19.60;101761.00;;;;10530596;28;20256;-77
2023/06/23 06:20:27;;;;;;;40.90;32.08;;;;;19.90;101771.00;;;;10483410;28;20193;-77
2023/06/23 06:25:29;;;;;;;40.42;32.72;;;;;20.20;101774.00;;;;10511904;28;20287;-77
2023/06/23 06:30:32;;;;;;;31.90;28.13;;;;;20.30;101784.00;;;;10500228;28;20215;-77
2023/06/23 06:35:36;;;;;;;37.63;30.35;;;;;20.60;101783.00;;;;10500498;28;20646;-78
2023/06/23 06:40:38;;;;;;;39.13;29.08;;;;;21.10;101794.00;;;;10507297;28;20804;-79
2023/06/23 06:45:40;;;;;;;35.53;28.85;;;;;21.50;101793.00;;;;10512235;27;20443;-78
2023/06/23 06:50:42;;;;;;;30.77;25.23;;;;;21.50;101809.00;;;;10513367;28;20788;-80
2023/06/23 06:55:45;;;;;;;32.97;25.15;;;;;21.70;101816.00;;;;10533709;28;20193;-79
2023/06/23 07:00:46;;;;;;;27.33;23.23;;;;;21.80;101819.00;;;;10503274;28;20669;-79
2023/06/23 07:05:48;;;;;;;26.02;20.73;;;;;22.20;101825.00;;;;10508236;28;20200;-79
2023/06/23 07:10:50;;;;;;;24.40;21.02;;;;;22.40;101837.00;;;;10491721;28;20217;-80
2023/06/23 07:15:52;;;;;;;25.15;21.80;;;;;22.70;101841.00;;;;10510361;27;20319;-81
2023/06/23 07:20:53;;;;;;;25.38;20.52;;;;;22.70;101847.00;;;;10510508;28;20278;-78
2023/06/23 07:25:55;;;;;;;20.88;18.65;;;;;23.10;101841.00;;;;10519566;28;20208;-79
2023/06/23 07:30:57;;;;;;;21.05;17.73;;;;;23.70;101846.00;;;;10520857;28;20773;-80
2023/06/23 07:35:59;;;;;;;22.55;17.58;;;;;24.00;101845.00;;;;10520059;28;20393;-79
2023/06/23 07:41:00;;;;;;;16.17;12.63;;;;;24.60;101858.00;;;;10489393;28;20904;-81
2023/06/23 07:46:02;;;;;;;12.48;10.93;;;;;24.70;101859.00;;;;10516037;27;20277;-80
2023/06/23 07:51:03;;;;;;;11.23;10.07;;;;;24.10;101859.00;;;;10532079;27;20224;-79
2023/06/23 07:56:05;;;;;;;13.02;8.80;;;;;24.10;101857.00;;;;10521472;28;20192;-80
2023/06/23 08:01:07;;;;;;;14.65;10.82;;;;;24.10;101848.00;;;;10546658;28;20717;-81
2023/06/23 08:06:08;;;;;;;14.20;11.43;;;;;24.50;101844.00;;;;10536367;28;20605;-80
2023/06/23 08:11:10;;;;;;;13.50;12.10;;;;;24.80;101853.00;;;;10536489;28;20643;-80
2023/06/23 08:16:11;;;;;;;12.90;10.85;;;;;25.10;101860.00;;;;10515955;28;20200;-79
2023/06/23 08:21:13;;;;;;;16.13;13.93;;;;;25.30;101863.00;;;;10496371;28;20254;-81
2023/06/23 08:26:15;;;;;;;16.48;12.82;;;;;26.00;101871.00;;;;10522811;28;20204;-79
2023/06/23 08:31:17;;;;;;;16.85;11.75;;;;;26.10;101860.00;;;;10519149;28;20216;-78
2023/06/23 08:36:18;;;;;;;17.92;13.98;;;;;26.60;101864.00;;;;10517010;28;20668;-79
2023/06/23 08:41:21;;;;;;;18.33;14.77;;;;;26.70;101864.00;;;;10528077;28;20269;-79
2023/06/23 08:46:29;;;;;;;15.13;13.60;;;;;26.60;101875.00;;;;10526608;28;20258;-79
2023/06/23 08:51:32;;;;;;;18.10;13.40;;;;;26.80;101880.00;;;;10535655;28;20606;-78
2023/06/23 08:56:34;;;;;;;14.40;12.73;;;;;27.30;101887.00;;;;10511755;28;20862;-83
2023/06/23 09:01:36;;;;;;;17.80;13.18;;;;;27.10;101892.00;;;;10518215;28;20661;-82
2023/06/23 09:06:37;;;;;;;15.35;13.55;;;;;27.80;101899.00;;;;10523513;28;20201;-81
2023/06/23 09:11:39;;;;;;;15.57;13.38;;;;;27.80;101903.00;;;;10513495;28;20399;-77
2023/06/23 09:16:41;;;;;;;14.70;12.95;;;;;27.50;101894.00;;;;10551789;27;20405;-83
2023/06/23 09:21:42;;;;;;;17.10;12.85;;;;;27.90;101901.00;;;;10522616;28;20435;-80
2023/06/23 09:26:45;;;;;;;11.77;10.15;;;;;28.20;101905.00;;;;10520739;27;20206;-81
2023/06/23 09:31:48;;;;;;;15.73;13.02;;;;;28.90;101898.00;;;;10539288;27;20295;-80
2023/06/23 09:36:52;;;;;;;13.48;12.18;;;;;29.10;101904.00;;;;10532856;27;20661;-79
2023/06/23 09:41:58;;;;;;;15.30;13.50;;;;;28.60;101910.00;;;;10523603;28;20210;-80
2023/06/23 09:47:00;;;;;;;15.75;11.80;;;;;28.90;101902.00;;;;10518052;28;20278;-78
2023/06/23 09:52:02;;;;;;;12.45;9.70;;;;;28.70;101907.00;;;;10479158;28;20221;-78
2023/06/23 09:57:14;;;;;;;13.88;10.55;;;;;29.20;101901.00;;;;10491744;28;20210;-79
2023/06/23 10:02:25;;;;;;;12.73;11.00;;;;;29.10;101911.00;;;;10543347;28;20197;-80
2023/06/23 10:07:28;;;;;;;14.10;11.65;;;;;29.50;101902.00;;;;10542428;28;20200;-79
2023/06/23 10:12:30;;;;;;;11.40;9.63;;;;;30.10;101903.00;;;;10524068;28;20261;-80
2023/06/23 10:17:32;;;;;;;11.27;8.60;;;;;30.20;101899.00;;;;10537584;28;20204;-79
2023/06/23 10:22:36;;;;;;;10.75;9.07;;;;;30.60;101905.00;;;;10542655;28;20999;-79
2023/06/23 10:27:40;;;;;;;11.40;10.20;;;;;30.40;101914.00;;;;10523159;27;20189;-78
2023/06/23 10:32:47;;;;;;;10.23;9.23;;;;;30.40;101906.00;;;;10514947;28;20209;-77
2023/06/23 10:37:50;;;;;;;12.23;9.38;;;;;31.10;101914.00;;;;10498882;28;20213;-78
2023/06/23 10:42:54;;;;;;;10.40;9.30;;;;;31.20;101911.00;;;;10514715;28;20226;-79
2023/06/23 10:47:55;;;;;;;9.25;6.72;;;;;31.20;101908.00;;;;10514762;28;20182;-73
2023/06/23 10:53:11;;;;;;;8.48;6.75;;;;;31.30;101922.00;;;;10518812;28;20985;-73
2023/06/23 10:58:16;;;;;;;9.60;8.27;;;;;31.50;101923.00;;;;10505384;28;20207;-76
2023/06/23 11:03:34;;;;;;;9.02;7.10;;;;;31.60;101917.00;;;;10488844;28;20500;-76
2023/06/23 11:08:37;;;;;;;10.88;6.07;;;;;31.10;101919.00;;;;10501269;28;20216;-81
2023/06/23 11:13:46;;;;;;;6.65;6.07;;;;;30.60;101915.00;;;;10533164;28;20718;-79
2023/06/23 11:18:52;;;;;;;7.65;6.30;;;;;30.20;101915.00;;;;10528573;27;20208;-78
2023/06/23 11:24:19;;;;;;;7.93;4.63;;;;;31.00;101912.00;;;;10495569;28;20234;-75
2023/06/23 11:29:22;;;;;;;6.38;5.28;;;;;31.30;101901.00;;;;10485682;28;20664;-77
2023/06/23 11:34:25;;;;;;;6.32;4.03;;;;;30.90;101911.00;;;;10532131;27;20200;-76
2023/06/23 11:39:26;;;;;;;5.53;4.03;;;;;31.50;101907.00;;;;10529852;27;20616;-75
2023/06/23 11:44:28;;;;;;;6.47;5.78;;;;;31.70;101893.00;;;;10509658;28;20209;-76
2023/06/23 11:49:30;;;;;;;8.57;4.57;;;;;31.90;101894.00;;;;10557104;27;20213;-75
2023/06/23 11:54:34;;;;;;;4.32;3.70;;;;;32.10;101896.00;;;;10530349;28;20201;-75
2023/06/23 11:59:38;;;;;;;5.70;3.65;;;;;32.40;101896.00;;;;10513502;28;20868;-75
2023/06/23 12:04:41;;;;;;;7.15;5.63;;;;;31.70;101899.00;;;;10534763;28;20196;-75
2023/06/23 12:09:43;;;;;;;6.80;5.78;;;;;31.60;101888.00;;;;10524674;28;20212;-76
2023/06/23 12:14:44;;;;;;;6.10;4.13;;;;;31.60;101888.00;;;;10534365;28;20909;-76
2023/06/23 12:19:51;;;;;;;5.45;3.80;;;;;32.70;101896.00;;;;10489544;28;20406;-74
2023/06/23 12:24:55;;;;;;;3.58;3.25;;;;;32.80;101893.00;;;;10518886;28;20251;-79
2023/06/23 12:30:17;;;;;;;5.05;3.15;;;;;32.20;101879.00;;;;10496609;28;20209;-75
2023/06/23 12:35:19;;;;;;;5.35;3.50;;;;;31.80;101886.00;;;;10450462;28;20236;-74
2023/06/23 12:40:28;;;;;;;5.50;3.08;;;;;32.30;101874.00;;;;10451362;28;20220;-74
2023/06/23 12:45:30;;;;;;;3.85;3.40;;;;;32.90;101883.00;;;;10479436;28;20209;-74
2023/06/23 12:50:32;;;;;;;4.72;3.85;;;;;32.40;101873.00;;;;10505865;28;20217;-74
2023/06/23 12:55:39;;;;;;;5.72;4.10;;;;;31.30;101888.00;;;;10464377;28;20205;-76
2023/06/23 13:00:41;;;;;;;5.07;3.20;;;;;30.90;101872.00;;;;10461797;28;20382;-77
2023/06/23 13:05:43;;;;;;;4.65;3.42;;;;;31.30;101870.00;;;;10478519;28;20692;-76
2023/06/23 13:10:45;;;;;;;3.80;3.50;;;;;31.60;101865.00;;;;10460442;28;20641;-76
2023/06/23 13:15:47;;;;;;;4.60;3.45;;;;;32.20;101870.00;;;;10494119;28;20319;-76
2023/06/23 13:20:49;;;;;;;3.63;3.25;;;;;31.70;101865.00;;;;10497384;28;20217;-77
2023/06/23 13:25:50;;;;;;;3.63;3.30;;;;;31.60;101860.00;;;;10462274;28;20653;-77
2023/06/23 13:30:51;;;;;;;5.80;3.75;;;;;31.60;101869.00;;;;10470531;28;20210;-78
2023/06/23 13:35:52;;;;;;;5.63;3.35;;;;;31.50;101862.00;;;;10496001;28;20193;-79
2023/06/23 13:40:54;;;;;;;4.15;2.80;;;;;31.60;101857.00;;;;10484749;28;20605;-79
2023/06/23 13:45:55;;;;;;;6.40;3.13;;;;;31.60;101861.00;;;;10485753;28;20501;-78
2023/06/23 13:50:58;;;;;;;4.68;3.00;;;;;32.40;101860.00;;;;10463678;28;20218;-78
2023/06/23 13:56:00;;;;;;;5.18;3.10;;;;;32.80;101870.00;;;;10477861;28;20201;-77
2023/06/23 14:01:01;;;;;;;4.18;2.80;;;;;32.20;101862.00;;;;10470672;28;20653;-76
2023/06/23 14:06:03;;;;;;;4.38;3.20;;;;;32.10;101860.00;;;;10488652;28;20189;-76
2023/06/23 14:11:05;;;;;;;5.50;3.85;;;;;31.70;101863.00;;;;10475955;28;20221;-77
2023/06/23 14:16:07;;;;;;;5.50;3.70;;;;;31.50;101857.00;;;;10503715;28;20197;-78
2023/06/23 14:21:08;;;;;;;5.18;3.75;;;;;30.90;101851.00;;;;10506419;28;20204;-77
2023/06/23 14:26:10;;;;;;;3.88;3.53;;;;;30.90;101849.00;;;;10490016;28;20358;-77
2023/06/23 14:31:11;;;;;;;5.40;4.30;;;;;30.80;101846.00;;;;10491809;28;20736;-77
2023/06/23 14:36:13;;;;;;;5.75;3.22;;;;;30.70;101851.00;;;;10477065;28;20299;-76
2023/06/23 14:41:15;;;;;;;5.75;4.53;;;;;30.20;101852.00;;;;10472467;28;20201;-79
2023/06/23 14:46:16;;;;;;;6.57;3.80;;;;;29.50;101859.00;;;;10482633;28;20579;-79
2023/06/23 14:51:18;;;;;;;6.40;3.53;;;;;29.10;101857.00;;;;10493346;28;20221;-75
2023/06/23 14:56:19;;;;;;;6.15;4.43;;;;;29.40;101854.00;;;;10505525;28;20594;-76
2023/06/23 15:01:20;;;;;;;3.83;3.28;;;;;30.80;101845.00;;;;10500268;28;20679;-77
2023/06/23 15:06:23;;;;;;;6.05;3.60;;;;;31.60;101847.00;;;;10464216;28;20293;-77
2023/06/23 15:11:24;;;;;;;3.70;3.28;;;;;31.70;101849.00;;;;10461383;28;20403;-76
2023/06/23 15:16:25;;;;;;;4.85;2.97;;;;;31.60;101848.00;;;;10477939;28;20207;-77
2023/06/23 15:21:27;;;;;;;3.22;2.90;;;;;31.30;101843.00;;;;10483005;28;20272;-78
2023/06/23 15:26:28;;;;;;;6.47;3.47;;;;;31.50;101851.00;;;;10500477;28;20715;-78
2023/06/23 15:31:29;;;;;;;3.53;3.20;;;;;31.20;101854.00;;;;10469673;28;20208;-76
2023/06/23 15:36:31;;;;;;;4.00;3.05;;;;;31.10;101870.00;;;;10495478;28;20858;-77
2023/06/23 15:41:35;;;;;;;5.07;2.88;;;;;30.70;101869.00;;;;10488753;28;20842;-80
2023/06/23 15:46:37;;;;;;;3.13;2.83;;;;;30.10;101861.00;;;;10477116;28;20572;-80
2023/06/23 15:51:39;;;;;;;3.85;2.70;;;;;29.80;101869.00;;;;10453970;28;20695;-80
2023/06/23 15:56:41;;;;;;;5.85;3.05;;;;;29.60;101852.00;;;;10480224;28;20225;-80
2023/06/23 16:01:42;;;;;;;2.95;2.75;;;;;29.70;101858.00;;;;10488682;28;20197;-77
2023/06/23 16:06:43;;;;;;;4.30;2.67;;;;;29.50;101864.00;;;;10489540;28;20200;-76
2023/06/23 16:11:45;;;;;;;3.95;3.40;;;;;28.80;101858.00;;;;10488270;28;20209;-76
2023/06/23 16:16:46;;;;;;;4.10;3.20;;;;;28.40;101858.00;;;;10494421;28;20401;-75
2023/06/23 16:21:48;;;;;;;4.25;2.85;;;;;27.90;101863.00;;;;10469129;28;20868;-75
2023/06/23 16:26:50;;;;;;;5.82;2.75;;;;;27.80;101857.00;;;;10461127;28;20201;-77
2023/06/23 16:31:51;;;;;;;4.32;3.15;;;;;27.80;101855.00;;;;10491237;28;20406;-78
2023/06/23 16:36:52;;;;;;;3.47;3.17;;;;;27.80;101858.00;;;;10508799;28;20334;-80
2023/06/23 16:41:56;;;;;;;3.65;3.35;;;;;27.50;101857.00;;;;10491758;28;20204;-80
2023/06/23 16:46:58;;;;;;;3.47;3.17;;;;;27.20;101862.00;;;;10472478;28;20202;-82
2023/06/23 16:51:59;;;;;;;6.28;3.60;;;;;27.20;101860.00;;;;10474154;28;20994;-79
2023/06/23 16:57:01;;;;;;;5.63;4.20;;;;;27.40;101857.00;;;;10424482;28;20285;-77
2023/06/23 17:02:03;;;;;;;6.53;3.00;;;;;27.40;101855.00;;;;10474939;28;20216;-79
2023/06/23 17:07:05;;;;;;;3.75;3.45;;;;;27.20;101850.00;;;;10399060;28;20299;-79
2023/06/23 17:12:07;;;;;;;4.78;3.97;;;;;27.10;101858.00;;;;10414929;28;20221;-80
2023/06/23 17:17:20;;;;;;;4.28;3.65;;;;;27.00;101863.00;;;;10424621;28;20209;-78
2023/06/23 17:22:22;;;;;;;4.90;4.25;;;;;27.00;101851.00;;;;10422191;28;20336;-78
2023/06/23 17:27:23;;;;;;;5.00;4.15;;;;;26.90;101855.00;;;;10397191;28;20206;-77
2023/06/23 17:32:25;;;;;;;3.92;3.55;;;;;26.80;101848.00;;;;10407445;28;20700;-78
2023/06/23 17:37:26;;;;;;;5.13;3.40;;;;;26.90;101853.00;;;;10417741;28;20541;-80
2023/06/23 17:42:28;;;;;;;5.22;3.83;;;;;26.70;101860.00;;;;10423871;28;20500;-78
2023/06/23 17:47:29;;;;;;;5.38;4.30;;;;;26.60;101854.00;;;;10402949;28;20327;-78
2023/06/23 17:52:30;;;;;;;5.85;4.53;;;;;26.60;101864.00;;;;10424419;28;20293;-80
2023/06/23 17:57:32;;;;;;;5.72;3.83;;;;;26.40;101869.00;;;;10420284;28;20321;-80
2023/06/23 18:02:33;;;;;;;8.68;3.75;;;;;26.30;101869.00;;;;10392919;28;20283;-77
2023/06/23 18:07:35;;;;;;;4.88;3.90;;;;;26.10;101869.00;;;;10415802;28;20216;-78
2023/06/23 18:12:36;;;;;;;6.75;4.30;;;;;25.80;101877.00;;;;10403014;28;20236;-78
2023/06/23 18:17:38;;;;;;;5.97;3.70;;;;;25.60;101873.00;;;;10419180;28;20201;-77
2023/06/23 18:22:39;;;;;;;5.35;4.10;;;;;25.50;101870.00;;;;10423283;28;20213;-78
2023/06/23 18:27:42;;;;;;;7.72;4.43;;;;;25.30;101856.00;;;;10425569;28;20230;-79
2023/06/23 18:32:44;;;;;;;6.85;3.70;;;;;25.20;101849.00;;;;10411925;28;20800;-79
2023/06/23 18:37:45;;;;;;;5.03;3.90;;;;;25.00;101855.00;;;;10417952;28;20205;-78
2023/06/23 18:42:47;;;;;;;7.03;3.58;;;;;24.90;101862.00;;;;10419863;28;20225;-78
2023/06/23 18:47:48;;;;;;;8.07;3.80;;;;;24.70;101877.00;;;;10417806;28;21361;-80
2023/06/23 18:52:50;;;;;;;6.07;3.90;;;;;24.60;101885.00;;;;10420052;28;20567;-76
2023/06/23 18:57:51;;;;;;;5.07;3.88;;;;;24.40;101881.00;;;;10420929;28;20232;-80
2023/06/23 19:02:55;;;;;;;5.32;4.03;;;;;24.20;101892.00;;;;10412188;28;20229;-76
2023/06/23 19:07:57;;;;;;;7.35;4.70;;;;;24.00;101892.00;;;;10409790;28;20446;-78
2023/06/23 19:12:58;;;;;;;10.13;4.70;;;;;23.80;101893.00;;;;10414999;28;20216;-78
2023/06/23 19:18:00;;;;;;;7.63;5.57;;;;;23.70;101905.00;;;;10414888;28;20220;-77
2023/06/23 19:23:02;;;;;;;6.18;4.70;;;;;23.60;101912.00;;;;10413675;28;21325;-78
2023/06/23 19:28:03;;;;;;;5.03;4.53;;;;;23.50;101908.00;;;;10411165;28;20224;-79
2023/06/23 19:33:05;;;;;;;5.70;4.57;;;;;23.40;101914.00;;;;10415190;28;20228;-79
2023/06/23 19:38:06;;;;;;;11.52;4.80;;;;;23.40;101916.00;;;;10413434;28;20541;-79
2023/06/23 19:43:08;;;;;;;8.40;4.22;;;;;23.30;101927.00;;;;10393994;28;20209;-78
2023/06/23 19:48:10;;;;;;;5.03;4.53;;;;;23.20;101918.00;;;;10409403;28;20209;-76
2023/06/23 19:53:11;;;;;;;7.05;4.95;;;;;23.10;101935.00;;;;10407234;28;20314;-77
2023/06/23 19:58:17;;;;;;;7.45;4.82;;;;;23.00;101934.00;;;;10411144;28;21786;-77
2023/06/23 20:03:19;;;;;;;8.75;4.82;;;;;22.90;101937.00;;;;10377591;28;20262;-79
2023/06/23 20:08:20;;;;;;;6.75;5.05;;;;;22.80;101949.00;;;;10394922;28;20220;-77
2023/06/23 20:13:22;;;;;;;7.38;5.22;;;;;22.70;101955.00;;;;10399491;28;20223;-80
2023/06/23 20:18:24;;;;;;;10.85;5.00;;;;;22.60;101956.00;;;;10424016;28;20304;-81
2023/06/23 20:23:27;;;;;;;9.77;5.07;;;;;22.40;101961.00;;;;10386881;28;20849;-78
2023/06/23 20:28:29;;;;;;;5.03;4.32;;;;;22.20;101970.00;;;;10412332;28;20465;-77
2023/06/23 20:33:30;;;;;;;9.68;5.63;;;;;22.00;101958.00;;;;10413153;28;21431;-78
2023/06/23 20:38:32;;;;;;;9.18;5.32;;;;;21.90;101967.00;;;;10418471;28;20215;-78
2023/06/23 20:43:33;;;;;;;8.65;5.25;;;;;21.70;101962.00;;;;10396814;28;20212;-79
2023/06/23 20:48:39;;;;;;;7.20;5.32;;;;;21.60;101962.00;;;;10417927;28;20240;-78
2023/06/23 20:53:40;;;;;;;12.00;6.57;;;;;21.60;101959.00;;;;10396424;28;20210;-77
2023/06/23 20:58:42;;;;;;;9.18;5.65;;;;;21.50;101961.00;;;;10388778;28;20215;-78
2023/06/23 21:03:43;;;;;;;8.48;5.65;;;;;21.40;101958.00;;;;10390363;28;20211;-79
2023/06/23 21:08:45;;;;;;;8.68;6.45;;;;;21.20;101970.00;;;;10405764;28;20624;-77
2023/06/23 21:13:46;;;;;;;9.50;6.53;;;;;21.10;101964.00;;;;10404828;28;20683;-77
2023/06/23 21:18:47;;;;;;;11.77;6.38;;;;;20.90;101961.00;;;;10407120;28;21266;-77
2023/06/23 21:23:49;;;;;;;11.63;6.70;;;;;20.80;101959.00;;;;10400540;28;20213;-79
2023/06/23 21:28:50;;;;;;;15.32;7.03;;;;;20.60;101958.00;;;;10410423;28;20616;-77
2023/06/23 21:33:51;;;;;;;12.90;7.22;;;;;20.50;101969.00;;;;10406479;28;20539;-77
2023/06/23 21:38:53;;;;;;;9.18;6.78;;;;;20.40;101958.00;;;;10386411;28;21158;-80
2023/06/23 21:43:54;;;;;;;8.50;6.80;;;;;20.20;101964.00;;;;10408113;28;20205;-80
2023/06/23 21:48:57;;;;;;;10.85;7.60;;;;;20.10;101970.00;;;;10411475;28;20221;-78
2023/06/23 21:53:58;;;;;;;12.82;7.47;;;;;20.00;101971.00;;;;10384690;28;20250;-78
2023/06/23 21:59:00;;;;;;;13.55;8.45;;;;;19.90;101972.00;;;;10399628;28;20221;-77
2023/06/23 22:04:01;;;;;;;9.80;8.00;;;;;19.80;101970.00;;;;10386626;28;20201;-79
2023/06/23 22:09:03;;;;;;;12.85;9.35;;;;;19.70;101968.00;;;;10400322;28;20344;-79
2023/06/23 22:14:05;;;;;;;13.25;8.65;;;;;19.50;101963.00;;;;10427953;28;20201;-78
2023/06/23 22:19:06;;;;;;;10.82;8.48;;;;;19.40;101975.00;;;;10421218;28;21337;-79
2023/06/23 22:24:07;;;;;;;11.50;8.90;;;;;19.30;101967.00;;;;10438377;28;20247;-78
2023/06/23 22:29:09;;;;;;;11.98;8.23;;;;;19.20;101970.00;;;;10409599;28;20227;-77
2023/06/23 22:34:10;;;;;;;16.73;9.02;;;;;19.10;101969.00;;;;10404764;28;20833;-77
2023/06/23 22:39:11;;;;;;;15.40;8.77;;;;;19.10;101979.00;;;;10388978;28;20528;-77
2023/06/23 22:44:13;;;;;;;13.27;8.55;;;;;19.00;101979.00;;;;10370461;28;20295;-76
2023/06/23 22:49:14;;;;;;;12.10;8.85;;;;;18.90;101976.00;;;;10406939;28;20216;-78
2023/06/23 22:54:16;;;;;;;14.18;9.13;;;;;18.80;101974.00;;;;10372309;28;20197;-78
2023/06/23 22:59:17;;;;;;;11.57;8.20;;;;;18.80;101977.00;;;;10394267;28;20746;-78
2023/06/23 23:04:18;;;;;;;18.25;9.32;;;;;18.70;101979.00;;;;10407780;28;20702;-75
2023/06/23 23:09:20;;;;;;;11.38;9.27;;;;;18.50;101978.00;;;;10402899;28;20248;-78
2023/06/23 23:14:24;;;;;;;12.77;9.40;;;;;18.50;101983.00;;;;10419478;28;20320;-77
2023/06/23 23:19:26;;;;;;;12.73;9.25;;;;;18.40;101984.00;;;;10417699;28;20896;-77
2023/06/23 23:24:27;;;;;;;13.80;9.15;;;;;18.20;101981.00;;;;10412836;28;20539;-78
2023/06/23 23:29:29;;;;;;;15.80;9.48;;;;;18.10;101980.00;;;;10400062;28;20343;-77
2023/06/23 23:34:33;;;;;;;14.80;10.15;;;;;17.90;101985.00;;;;10402237;28;20594;-77
2023/06/23 23:39:34;;;;;;;16.52;9.90;;;;;17.80;101984.00;;;;10384990;28;20555;-76
2023/06/23 23:44:36;;;;;;;16.52;9.82;;;;;17.70;101984.00;;;;10401560;28;20366;-77
2023/06/23 23:49:38;;;;;;;15.60;9.00;;;;;17.70;101979.00;;;;10398591;28;20221;-76
2023/06/23 23:54:39;;;;;;;12.75;9.13;;;;;17.60;101980.00;;;;10395256;28;20827;-74
2023/06/23 23:59:40;;;;;;;11.73;8.27;;;;;17.50;101976.00;;;;10400786;28;22024;-76
